sensor_id;sensor_type;location;lat;lon;timestamp;P1;durP1;ratioP1;P2;durP2;ratioP2
2390;SDS011;22957;50.824;4.360;2023-04-15T00:00:26;4.10;;;2.00;;
2390;SDS011;22957;50.824;4.360;2023-04-15T00:02:53;2.50;;;1.87;;
2390;SDS011;22957;50.824;4.360;2023-04-15T00:05:19;3.47;;;2.33;;
2390;SDS011;22957;50.824;4.360;2023-04-15T00:07:45;4.90;;;2.30;;
2390;SDS011;22957;50.824;4.360;2023-04-15T00:10:11;3.97;;;2.03;;
2390;SDS011;22957;50.824;4.360;2023-04-15T00:12:36;2.43;;;2.13;;
2390;SDS011;22957;50.824;4.360;2023-04-15T00:15:02;7.60;;;2.70;;
2390;SDS011;22957;50.824;4.360;2023-04-15T00:17:28;4.20;;;2.23;;
2390;SDS011;22957;50.824;4.360;2023-04-15T00:19:54;4.13;;;2.93;;
2390;SDS011;22957;50.824;4.360;2023-04-15T00:22:19;6.63;;;2.57;;
2390;SDS011;22957;50.824;4.360;2023-04-15T00:24:45;4.70;;;2.73;;
2390;SDS011;22957;50.824;4.360;2023-04-15T00:27:11;3.97;;;2.43;;
2390;SDS011;22957;50.824;4.360;2023-04-15T00:29:36;4.07;;;2.37;;
2390;SDS011;22957;50.824;4.360;2023-04-15T00:32:02;4.73;;;2.57;;
2390;SDS011;22957;50.824;4.360;2023-04-15T00:34:27;7.73;;;2.57;;
2390;SDS011;22957;50.824;4.360;2023-04-15T00:36:53;4.33;;;2.63;;
2390;SDS011;22957;50.824;4.360;2023-04-15T00:39:19;4.50;;;2.60;;
2390;SDS011;22957;50.824;4.360;2023-04-15T00:41:45;5.30;;;2.73;;
2390;SDS011;22957;50.824;4.360;2023-04-15T00:44:10;3.33;;;2.57;;
2390;SDS011;22957;50.824;4.360;2023-04-15T00:46:36;4.63;;;2.43;;
2390;SDS011;22957;50.824;4.360;2023-04-15T00:49:03;7.13;;;3.73;;
2390;SDS011;22957;50.824;4.360;2023-04-15T00:51:30;8.70;;;2.80;;
2390;SDS011;22957;50.824;4.360;2023-04-15T00:53:57;5.57;;;3.30;;
2390;SDS011;22957;50.824;4.360;2023-04-15T00:56:24;5.63;;;3.53;;
2390;SDS011;22957;50.824;4.360;2023-04-15T00:58:51;5.27;;;2.70;;
2390;SDS011;22957;50.824;4.360;2023-04-15T01:01:20;4.30;;;2.60;;
2390;SDS011;22957;50.824;4.360;2023-04-15T01:03:47;5.73;;;2.90;;
2390;SDS011;22957;50.824;4.360;2023-04-15T01:06:14;4.50;;;2.60;;
2390;SDS011;22957;50.824;4.360;2023-04-15T01:08:40;5.50;;;2.93;;
2390;SDS011;22957;50.824;4.360;2023-04-15T01:11:06;4.23;;;2.60;;
2390;SDS011;22957;50.824;4.360;2023-04-15T01:13:32;4.33;;;3.20;;
2390;SDS011;22957;50.824;4.360;2023-04-15T01:15:58;4.80;;;2.23;;
2390;SDS011;22957;50.824;4.360;2023-04-15T01:18:25;4.80;;;2.10;;
2390;SDS011;22957;50.824;4.360;2023-04-15T01:20:51;3.90;;;2.30;;
2390;SDS011;22957;50.824;4.360;2023-04-15T01:23:19;4.30;;;2.23;;
2390;SDS011;22957;50.824;4.360;2023-04-15T01:25:46;3.40;;;2.10;;
2390;SDS011;22957;50.824;4.360;2023-04-15T01:28:13;5.83;;;2.93;;
2390;SDS011;22957;50.824;4.360;2023-04-15T01:30:38;2.83;;;2.20;;
2390;SDS011;22957;50.824;4.360;2023-04-15T01:33:04;3.87;;;2.13;;
2390;SDS011;22957;50.824;4.360;2023-04-15T01:35:30;5.63;;;2.40;;
2390;SDS011;22957;50.824;4.360;2023-04-15T01:37:57;3.13;;;2.10;;
2390;SDS011;22957;50.824;4.360;2023-04-15T01:40:29;3.57;;;2.50;;
2390;SDS011;22957;50.824;4.360;2023-04-15T01:42:55;2.77;;;2.00;;
2390;SDS011;22957;50.824;4.360;2023-04-15T01:45:20;2.23;;;2.03;;
2390;SDS011;22957;50.824;4.360;2023-04-15T01:47:46;6.00;;;1.70;;
2390;SDS011;22957;50.824;4.360;2023-04-15T01:50:11;3.53;;;1.60;;
2390;SDS011;22957;50.824;4.360;2023-04-15T01:52:37;2.33;;;1.50;;
2390;SDS011;22957;50.824;4.360;2023-04-15T01:55:03;3.53;;;1.90;;
2390;SDS011;22957;50.824;4.360;2023-04-15T01:57:30;2.67;;;2.07;;
2390;SDS011;22957;50.824;4.360;2023-04-15T01:59:56;3.17;;;1.80;;
2390;SDS011;22957;50.824;4.360;2023-04-15T02:02:21;3.13;;;1.43;;
2390;SDS011;22957;50.824;4.360;2023-04-15T02:04:47;3.87;;;2.00;;
2390;SDS011;22957;50.824;4.360;2023-04-15T02:07:12;6.10;;;2.80;;
2390;SDS011;22957;50.824;4.360;2023-04-15T02:09:38;4.10;;;2.40;;
2390;SDS011;22957;50.824;4.360;2023-04-15T02:12:04;4.37;;;2.63;;
2390;SDS011;22957;50.824;4.360;2023-04-15T02:14:30;3.40;;;2.33;;
2390;SDS011;22957;50.824;4.360;2023-04-15T02:16:55;3.70;;;2.20;;
2390;SDS011;22957;50.824;4.360;2023-04-15T02:19:21;2.87;;;2.27;;
2390;SDS011;22957;50.824;4.360;2023-04-15T02:21:46;6.27;;;1.83;;
2390;SDS011;22957;50.824;4.360;2023-04-15T02:24:12;3.50;;;1.73;;
2390;SDS011;22957;50.824;4.360;2023-04-15T02:26:37;2.37;;;1.87;;
2390;SDS011;22957;50.824;4.360;2023-04-15T02:29:03;3.53;;;1.80;;
2390;SDS011;22957;50.824;4.360;2023-04-15T02:31:29;4.20;;;2.57;;
2390;SDS011;22957;50.824;4.360;2023-04-15T02:33:54;1.83;;;1.57;;
2390;SDS011;22957;50.824;4.360;2023-04-15T02:36:20;2.37;;;1.60;;
2390;SDS011;22957;50.824;4.360;2023-04-15T02:38:46;2.43;;;1.50;;
2390;SDS011;22957;50.824;4.360;2023-04-15T02:41:11;2.60;;;1.77;;
2390;SDS011;22957;50.824;4.360;2023-04-15T02:43:37;3.50;;;2.00;;
2390;SDS011;22957;50.824;4.360;2023-04-15T02:46:04;4.30;;;1.90;;
2390;SDS011;22957;50.824;4.360;2023-04-15T02:48:30;2.70;;;1.80;;
2390;SDS011;22957;50.824;4.360;2023-04-15T02:51:12;2.33;;;1.53;;
2390;SDS011;22957;50.824;4.360;2023-04-15T02:53:43;3.20;;;2.07;;
2390;SDS011;22957;50.824;4.360;2023-04-15T02:56:10;3.03;;;1.70;;
2390;SDS011;22957;50.824;4.360;2023-04-15T02:58:36;4.50;;;2.33;;
2390;SDS011;22957;50.824;4.360;2023-04-15T03:01:02;4.60;;;1.77;;
2390;SDS011;22957;50.824;4.360;2023-04-15T03:03:27;4.17;;;2.50;;
2390;SDS011;22957;50.824;4.360;2023-04-15T03:05:53;6.97;;;2.10;;
2390;SDS011;22957;50.824;4.360;2023-04-15T03:08:18;3.13;;;2.47;;
2390;SDS011;22957;50.824;4.360;2023-04-15T03:10:47;6.67;;;2.77;;
2390;SDS011;22957;50.824;4.360;2023-04-15T03:13:13;5.93;;;3.10;;
2390;SDS011;22957;50.824;4.360;2023-04-15T03:15:38;5.23;;;2.70;;
2390;SDS011;22957;50.824;4.360;2023-04-15T03:18:04;5.97;;;2.57;;
2390;SDS011;22957;50.824;4.360;2023-04-15T03:20:29;6.70;;;3.80;;
2390;SDS011;22957;50.824;4.360;2023-04-15T03:22:55;11.87;;;5.50;;
2390;SDS011;22957;50.824;4.360;2023-04-15T03:25:21;9.80;;;5.20;;
2390;SDS011;22957;50.824;4.360;2023-04-15T03:27:46;11.40;;;6.07;;
2390;SDS011;22957;50.824;4.360;2023-04-15T03:30:12;11.47;;;5.47;;
2390;SDS011;22957;50.824;4.360;2023-04-15T03:32:38;14.80;;;7.33;;
2390;SDS011;22957;50.824;4.360;2023-04-15T03:35:04;20.27;;;9.77;;
2390;SDS011;22957;50.824;4.360;2023-04-15T03:37:30;23.70;;;10.83;;
2390;SDS011;22957;50.824;4.360;2023-04-15T03:39:55;24.30;;;10.30;;
2390;SDS011;22957;50.824;4.360;2023-04-15T03:42:21;24.73;;;11.13;;
2390;SDS011;22957;50.824;4.360;2023-04-15T03:44:47;25.57;;;12.20;;
2390;SDS011;22957;50.824;4.360;2023-04-15T03:47:12;22.43;;;9.83;;
2390;SDS011;22957;50.824;4.360;2023-04-15T03:49:38;19.17;;;9.33;;
2390;SDS011;22957;50.824;4.360;2023-04-15T03:52:03;21.53;;;9.30;;
2390;SDS011;22957;50.824;4.360;2023-04-15T03:54:29;17.90;;;9.37;;
2390;SDS011;22957;50.824;4.360;2023-04-15T03:56:55;15.20;;;8.60;;
2390;SDS011;22957;50.824;4.360;2023-04-15T03:59:21;16.03;;;8.47;;
2390;SDS011;22957;50.824;4.360;2023-04-15T04:01:47;15.50;;;8.50;;
2390;SDS011;22957;50.824;4.360;2023-04-15T04:04:13;12.10;;;7.60;;
2390;SDS011;22957;50.824;4.360;2023-04-15T04:06:38;16.50;;;9.30;;
2390;SDS011;22957;50.824;4.360;2023-04-15T04:09:04;18.50;;;9.33;;
2390;SDS011;22957;50.824;4.360;2023-04-15T04:11:29;19.20;;;8.27;;
2390;SDS011;22957;50.824;4.360;2023-04-15T04:13:55;13.90;;;8.30;;
2390;SDS011;22957;50.824;4.360;2023-04-15T04:16:21;13.33;;;8.00;;
2390;SDS011;22957;50.824;4.360;2023-04-15T04:18:46;12.47;;;7.87;;
2390;SDS011;22957;50.824;4.360;2023-04-15T04:21:12;17.27;;;8.00;;
2390;SDS011;22957;50.824;4.360;2023-04-15T04:23:37;11.80;;;6.90;;
2390;SDS011;22957;50.824;4.360;2023-04-15T04:26:03;9.80;;;6.30;;
2390;SDS011;22957;50.824;4.360;2023-04-15T04:28:29;14.50;;;7.30;;
2390;SDS011;22957;50.824;4.360;2023-04-15T04:30:55;11.27;;;6.70;;
2390;SDS011;22957;50.824;4.360;2023-04-15T04:33:20;10.87;;;7.10;;
2390;SDS011;22957;50.824;4.360;2023-04-15T04:35:46;13.33;;;7.43;;
2390;SDS011;22957;50.824;4.360;2023-04-15T04:38:11;13.47;;;6.73;;
2390;SDS011;22957;50.824;4.360;2023-04-15T04:40:37;12.40;;;6.63;;
2390;SDS011;22957;50.824;4.360;2023-04-15T04:43:03;9.53;;;5.97;;
2390;SDS011;22957;50.824;4.360;2023-04-15T04:45:29;12.80;;;5.97;;
2390;SDS011;22957;50.824;4.360;2023-04-15T04:47:54;10.80;;;6.90;;
2390;SDS011;22957;50.824;4.360;2023-04-15T04:50:20;16.27;;;7.63;;
2390;SDS011;22957;50.824;4.360;2023-04-15T04:52:45;11.80;;;6.60;;
2390;SDS011;22957;50.824;4.360;2023-04-15T04:55:11;10.40;;;6.97;;
2390;SDS011;22957;50.824;4.360;2023-04-15T04:57:37;9.50;;;5.50;;
2390;SDS011;22957;50.824;4.360;2023-04-15T05:00:04;17.00;;;6.80;;
2390;SDS011;22957;50.824;4.360;2023-04-15T05:02:32;8.23;;;5.10;;
2390;SDS011;22957;50.824;4.360;2023-04-15T05:04:57;10.00;;;5.73;;
2390;SDS011;22957;50.824;4.360;2023-04-15T05:07:23;11.43;;;5.47;;
2390;SDS011;22957;50.824;4.360;2023-04-15T05:09:49;9.20;;;5.80;;
2390;SDS011;22957;50.824;4.360;2023-04-15T05:12:14;7.67;;;5.27;;
2390;SDS011;22957;50.824;4.360;2023-04-15T05:14:40;9.87;;;5.30;;
2390;SDS011;22957;50.824;4.360;2023-04-15T05:17:06;8.60;;;4.50;;
2390;SDS011;22957;50.824;4.360;2023-04-15T05:19:32;6.60;;;4.90;;
2390;SDS011;22957;50.824;4.360;2023-04-15T05:21:58;8.03;;;4.60;;
2390;SDS011;22957;50.824;4.360;2023-04-15T05:24:24;8.50;;;4.50;;
2390;SDS011;22957;50.824;4.360;2023-04-15T05:26:50;20.73;;;5.27;;
2390;SDS011;22957;50.824;4.360;2023-04-15T05:29:15;9.03;;;4.43;;
2390;SDS011;22957;50.824;4.360;2023-04-15T05:31:41;14.17;;;5.20;;
2390;SDS011;22957;50.824;4.360;2023-04-15T05:34:07;13.73;;;5.23;;
2390;SDS011;22957;50.824;4.360;2023-04-15T05:36:32;10.03;;;4.40;;
2390;SDS011;22957;50.824;4.360;2023-04-15T05:38:58;7.50;;;4.53;;
2390;SDS011;22957;50.824;4.360;2023-04-15T05:41:24;9.83;;;4.70;;
2390;SDS011;22957;50.824;4.360;2023-04-15T05:43:50;7.27;;;4.30;;
2390;SDS011;22957;50.824;4.360;2023-04-15T05:46:15;11.27;;;5.60;;
2390;SDS011;22957;50.824;4.360;2023-04-15T05:48:41;10.77;;;4.70;;
2390;SDS011;22957;50.824;4.360;2023-04-15T05:51:07;9.20;;;4.83;;
2390;SDS011;22957;50.824;4.360;2023-04-15T05:53:32;8.33;;;4.80;;
2390;SDS011;22957;50.824;4.360;2023-04-15T05:55:58;8.97;;;5.30;;
2390;SDS011;22957;50.824;4.360;2023-04-15T05:58:23;12.90;;;5.77;;
2390;SDS011;22957;50.824;4.360;2023-04-15T06:00:49;11.03;;;5.47;;
2390;SDS011;22957;50.824;4.360;2023-04-15T06:03:15;11.37;;;5.60;;
2390;SDS011;22957;50.824;4.360;2023-04-15T06:05:40;12.80;;;5.43;;
2390;SDS011;22957;50.824;4.360;2023-04-15T06:08:06;10.03;;;5.00;;
2390;SDS011;22957;50.824;4.360;2023-04-15T06:10:33;13.33;;;5.43;;
2390;SDS011;22957;50.824;4.360;2023-04-15T06:13:01;9.70;;;6.27;;
2390;SDS011;22957;50.824;4.360;2023-04-15T06:15:27;13.13;;;6.50;;
2390;SDS011;22957;50.824;4.360;2023-04-15T06:17:54;10.73;;;6.10;;
2390;SDS011;22957;50.824;4.360;2023-04-15T06:20:20;17.50;;;6.77;;
2390;SDS011;22957;50.824;4.360;2023-04-15T06:22:45;10.10;;;6.37;;
2390;SDS011;22957;50.824;4.360;2023-04-15T06:25:11;10.13;;;5.90;;
2390;SDS011;22957;50.824;4.360;2023-04-15T06:27:37;11.27;;;5.83;;
2390;SDS011;22957;50.824;4.360;2023-04-15T06:30:03;8.20;;;5.23;;
2390;SDS011;22957;50.824;4.360;2023-04-15T06:32:29;10.30;;;6.47;;
2390;SDS011;22957;50.824;4.360;2023-04-15T06:34:55;10.03;;;6.67;;
2390;SDS011;22957;50.824;4.360;2023-04-15T06:37:21;10.23;;;6.57;;
2390;SDS011;22957;50.824;4.360;2023-04-15T06:39:47;8.43;;;5.77;;
2390;SDS011;22957;50.824;4.360;2023-04-15T06:42:12;14.90;;;6.00;;
2390;SDS011;22957;50.824;4.360;2023-04-15T06:44:38;11.30;;;6.90;;
2390;SDS011;22957;50.824;4.360;2023-04-15T06:47:04;8.70;;;6.17;;
2390;SDS011;22957;50.824;4.360;2023-04-15T06:49:29;12.17;;;5.30;;
2390;SDS011;22957;50.824;4.360;2023-04-15T06:51:55;10.97;;;6.47;;
2390;SDS011;22957;50.824;4.360;2023-04-15T06:54:21;12.57;;;5.10;;
2390;SDS011;22957;50.824;4.360;2023-04-15T06:56:47;13.03;;;5.90;;
2390;SDS011;22957;50.824;4.360;2023-04-15T06:59:13;10.37;;;5.07;;
2390;SDS011;22957;50.824;4.360;2023-04-15T07:01:41;9.33;;;4.77;;
2390;SDS011;22957;50.824;4.360;2023-04-15T07:04:07;12.30;;;5.80;;
2390;SDS011;22957;50.824;4.360;2023-04-15T07:06:33;10.33;;;5.07;;
2390;SDS011;22957;50.824;4.360;2023-04-15T07:08:59;13.57;;;5.03;;
2390;SDS011;22957;50.824;4.360;2023-04-15T07:11:25;7.60;;;4.73;;
2390;SDS011;22957;50.824;4.360;2023-04-15T07:13:51;8.97;;;4.33;;
2390;SDS011;22957;50.824;4.360;2023-04-15T07:16:17;10.67;;;4.90;;
2390;SDS011;22957;50.824;4.360;2023-04-15T07:18:43;9.57;;;5.13;;
2390;SDS011;22957;50.824;4.360;2023-04-15T07:21:08;12.87;;;5.53;;
2390;SDS011;22957;50.824;4.360;2023-04-15T07:23:34;10.90;;;4.53;;
2390;SDS011;22957;50.824;4.360;2023-04-15T07:26:00;7.53;;;5.17;;
2390;SDS011;22957;50.824;4.360;2023-04-15T07:28:25;8.53;;;5.03;;
2390;SDS011;22957;50.824;4.360;2023-04-15T07:30:51;9.83;;;5.07;;
2390;SDS011;22957;50.824;4.360;2023-04-15T07:33:17;8.80;;;5.37;;
2390;SDS011;22957;50.824;4.360;2023-04-15T07:35:42;9.90;;;5.67;;
2390;SDS011;22957;50.824;4.360;2023-04-15T07:38:09;8.80;;;5.67;;
2390;SDS011;22957;50.824;4.360;2023-04-15T07:40:36;9.03;;;6.00;;
2390;SDS011;22957;50.824;4.360;2023-04-15T07:43:03;10.37;;;5.70;;
2390;SDS011;22957;50.824;4.360;2023-04-15T07:45:29;11.17;;;5.87;;
2390;SDS011;22957;50.824;4.360;2023-04-15T07:47:55;12.37;;;5.80;;
2390;SDS011;22957;50.824;4.360;2023-04-15T07:50:20;10.10;;;7.07;;
2390;SDS011;22957;50.824;4.360;2023-04-15T07:52:47;10.50;;;5.60;;
2390;SDS011;22957;50.824;4.360;2023-04-15T07:55:13;19.53;;;6.70;;
2390;SDS011;22957;50.824;4.360;2023-04-15T07:57:41;12.20;;;6.83;;
2390;SDS011;22957;50.824;4.360;2023-04-15T08:00:07;17.20;;;7.70;;
2390;SDS011;22957;50.824;4.360;2023-04-15T08:02:33;13.13;;;8.03;;
2390;SDS011;22957;50.824;4.360;2023-04-15T08:04:59;15.33;;;7.30;;
2390;SDS011;22957;50.824;4.360;2023-04-15T08:07:27;15.10;;;7.60;;
2390;SDS011;22957;50.824;4.360;2023-04-15T08:09:52;11.50;;;7.97;;
2390;SDS011;22957;50.824;4.360;2023-04-15T08:12:18;11.13;;;6.90;;
2390;SDS011;22957;50.824;4.360;2023-04-15T08:14:43;13.23;;;7.27;;
2390;SDS011;22957;50.824;4.360;2023-04-15T08:17:09;10.93;;;6.23;;
2390;SDS011;22957;50.824;4.360;2023-04-15T08:19:35;14.50;;;8.27;;
2390;SDS011;22957;50.824;4.360;2023-04-15T08:22:01;16.00;;;8.63;;
2390;SDS011;22957;50.824;4.360;2023-04-15T08:24:26;9.40;;;7.80;;
2390;SDS011;22957;50.824;4.360;2023-04-15T08:26:52;15.90;;;8.33;;
2390;SDS011;22957;50.824;4.360;2023-04-15T08:29:18;11.60;;;7.40;;
2390;SDS011;22957;50.824;4.360;2023-04-15T08:31:43;12.40;;;7.90;;
2390;SDS011;22957;50.824;4.360;2023-04-15T08:34:12;15.00;;;9.53;;
2390;SDS011;22957;50.824;4.360;2023-04-15T08:36:38;13.57;;;7.90;;
2390;SDS011;22957;50.824;4.360;2023-04-15T08:39:03;12.53;;;9.23;;
2390;SDS011;22957;50.824;4.360;2023-04-15T08:41:33;14.67;;;9.30;;
2390;SDS011;22957;50.824;4.360;2023-04-15T08:44:04;17.20;;;9.47;;
2390;SDS011;22957;50.824;4.360;2023-04-15T08:46:31;10.27;;;7.60;;
2390;SDS011;22957;50.824;4.360;2023-04-15T08:49:02;12.23;;;9.40;;
2390;SDS011;22957;50.824;4.360;2023-04-15T08:51:28;21.40;;;10.10;;
2390;SDS011;22957;50.824;4.360;2023-04-15T08:53:55;16.73;;;8.50;;
2390;SDS011;22957;50.824;4.360;2023-04-15T08:56:24;12.87;;;8.90;;
2390;SDS011;22957;50.824;4.360;2023-04-15T08:58:53;13.83;;;8.20;;
2390;SDS011;22957;50.824;4.360;2023-04-15T09:01:19;15.07;;;9.27;;
2390;SDS011;22957;50.824;4.360;2023-04-15T09:03:46;12.00;;;9.20;;
2390;SDS011;22957;50.824;4.360;2023-04-15T09:06:12;19.80;;;9.27;;
2390;SDS011;22957;50.824;4.360;2023-04-15T09:08:40;14.33;;;8.93;;
2390;SDS011;22957;50.824;4.360;2023-04-15T09:11:06;11.67;;;7.40;;
2390;SDS011;22957;50.824;4.360;2023-04-15T09:13:32;12.30;;;8.50;;
2390;SDS011;22957;50.824;4.360;2023-04-15T09:16:00;13.13;;;8.60;;
2390;SDS011;22957;50.824;4.360;2023-04-15T09:18:28;15.00;;;8.07;;
2390;SDS011;22957;50.824;4.360;2023-04-15T09:20:55;11.60;;;8.10;;
2390;SDS011;22957;50.824;4.360;2023-04-15T09:23:29;15.40;;;9.77;;
2390;SDS011;22957;50.824;4.360;2023-04-15T09:25:55;16.50;;;10.20;;
2390;SDS011;22957;50.824;4.360;2023-04-15T09:28:25;12.00;;;8.47;;
2390;SDS011;22957;50.824;4.360;2023-04-15T09:31:00;17.30;;;9.57;;
2390;SDS011;22957;50.824;4.360;2023-04-15T09:33:27;12.80;;;7.90;;
2390;SDS011;22957;50.824;4.360;2023-04-15T09:36:00;15.50;;;7.13;;
2390;SDS011;22957;50.824;4.360;2023-04-15T09:38:27;10.27;;;7.57;;
2390;SDS011;22957;50.824;4.360;2023-04-15T09:40:53;10.13;;;6.17;;
2390;SDS011;22957;50.824;4.360;2023-04-15T09:43:20;10.53;;;4.37;;
2390;SDS011;22957;50.824;4.360;2023-04-15T09:45:47;8.43;;;4.83;;
2390;SDS011;22957;50.824;4.360;2023-04-15T09:48:21;10.80;;;5.17;;
2390;SDS011;22957;50.824;4.360;2023-04-15T09:50:50;9.70;;;5.90;;
2390;SDS011;22957;50.824;4.360;2023-04-15T09:53:21;9.70;;;7.23;;
2390;SDS011;22957;50.824;4.360;2023-04-15T09:55:57;13.43;;;6.77;;
2390;SDS011;22957;50.824;4.360;2023-04-15T09:58:36;7.67;;;5.40;;
2390;SDS011;22957;50.824;4.360;2023-04-15T10:01:03;9.30;;;5.90;;
2390;SDS011;22957;50.824;4.360;2023-04-15T10:03:31;11.37;;;5.57;;
2390;SDS011;22957;50.824;4.360;2023-04-15T10:05:59;7.23;;;4.70;;
2390;SDS011;22957;50.824;4.360;2023-04-15T10:08:26;8.57;;;4.20;;
2390;SDS011;22957;50.824;4.360;2023-04-15T10:10:53;9.27;;;5.70;;
2390;SDS011;22957;50.824;4.360;2023-04-15T10:13:21;7.47;;;6.10;;
2390;SDS011;22957;50.824;4.360;2023-04-15T10:15:59;6.37;;;5.30;;
2390;SDS011;22957;50.824;4.360;2023-04-15T10:18:29;12.13;;;5.63;;
2390;SDS011;22957;50.824;4.360;2023-04-15T10:20:59;10.60;;;5.33;;
2390;SDS011;22957;50.824;4.360;2023-04-15T10:23:25;6.07;;;4.50;;
2390;SDS011;22957;50.824;4.360;2023-04-15T10:25:52;6.67;;;6.00;;
2390;SDS011;22957;50.824;4.360;2023-04-15T10:28:18;6.90;;;5.30;;
2390;SDS011;22957;50.824;4.360;2023-04-15T10:30:46;8.33;;;5.53;;
2390;SDS011;22957;50.824;4.360;2023-04-15T10:33:13;8.30;;;5.30;;
2390;SDS011;22957;50.824;4.360;2023-04-15T10:35:41;5.07;;;4.53;;
2390;SDS011;22957;50.824;4.360;2023-04-15T10:41:30;7.57;;;5.43;;
2390;SDS011;22957;50.824;4.360;2023-04-15T10:43:54;6.87;;;4.53;;
2390;SDS011;22957;50.824;4.360;2023-04-15T10:46:33;7.30;;;4.57;;
2390;SDS011;22957;50.824;4.360;2023-04-15T10:49:07;6.33;;;4.07;;
2390;SDS011;22957;50.824;4.360;2023-04-15T10:51:36;4.40;;;4.00;;
2390;SDS011;22957;50.824;4.360;2023-04-15T10:54:16;9.90;;;4.47;;
2390;SDS011;22957;50.824;4.360;2023-04-15T10:59:30;8.50;;;3.40;;
2390;SDS011;22957;50.824;4.360;2023-04-15T11:01:59;3.60;;;2.50;;
2390;SDS011;22957;50.824;4.360;2023-04-15T11:12:53;2.63;;;2.20;;
2390;SDS011;22957;50.824;4.360;2023-04-15T11:17:54;4.33;;;2.47;;
2390;SDS011;22957;50.824;4.360;2023-04-15T11:20:20;4.87;;;3.40;;
2390;SDS011;22957;50.824;4.360;2023-04-15T11:22:49;5.43;;;2.73;;
2390;SDS011;22957;50.824;4.360;2023-04-15T11:25:27;3.70;;;2.90;;
2390;SDS011;22957;50.824;4.360;2023-04-15T11:27:54;6.27;;;2.90;;
2390;SDS011;22957;50.824;4.360;2023-04-15T11:30:21;7.90;;;3.53;;
2390;SDS011;22957;50.824;4.360;2023-04-15T11:32:48;4.07;;;3.37;;
2390;SDS011;22957;50.824;4.360;2023-04-15T11:35:16;4.03;;;3.40;;
2390;SDS011;22957;50.824;4.360;2023-04-15T11:37:42;4.63;;;2.63;;
2390;SDS011;22957;50.824;4.360;2023-04-15T11:40:09;6.93;;;2.70;;
2390;SDS011;22957;50.824;4.360;2023-04-15T11:42:35;3.83;;;3.30;;
2390;SDS011;22957;50.824;4.360;2023-04-15T11:45:11;4.60;;;2.90;;
2390;SDS011;22957;50.824;4.360;2023-04-15T11:47:38;3.53;;;2.50;;
2390;SDS011;22957;50.824;4.360;2023-04-15T11:52:40;4.10;;;2.63;;
2390;SDS011;22957;50.824;4.360;2023-04-15T11:55:16;7.03;;;2.40;;
2390;SDS011;22957;50.824;4.360;2023-04-15T11:57:42;3.50;;;1.60;;
2390;SDS011;22957;50.824;4.360;2023-04-15T12:00:08;3.20;;;1.80;;
2390;SDS011;22957;50.824;4.360;2023-04-15T12:02:38;4.40;;;2.63;;
2390;SDS011;22957;50.824;4.360;2023-04-15T12:05:04;4.97;;;2.77;;
2390;SDS011;22957;50.824;4.360;2023-04-15T12:07:30;6.03;;;2.73;;
2390;SDS011;22957;50.824;4.360;2023-04-15T12:09:57;3.20;;;2.50;;
2390;SDS011;22957;50.824;4.360;2023-04-15T12:12:26;3.10;;;2.77;;
2390;SDS011;22957;50.824;4.360;2023-04-15T12:14:52;5.27;;;3.17;;
2390;SDS011;22957;50.824;4.360;2023-04-15T12:17:20;4.53;;;2.10;;
2390;SDS011;22957;50.824;4.360;2023-04-15T12:19:47;4.33;;;2.33;;
2390;SDS011;22957;50.824;4.360;2023-04-15T12:22:14;5.10;;;2.30;;
2390;SDS011;22957;50.824;4.360;2023-04-15T12:24:41;5.23;;;1.80;;
2390;SDS011;22957;50.824;4.360;2023-04-15T12:27:11;3.20;;;2.40;;
2390;SDS011;22957;50.824;4.360;2023-04-15T12:29:39;6.03;;;3.27;;
2390;SDS011;22957;50.824;4.360;2023-04-15T12:32:08;4.67;;;2.90;;
2390;SDS011;22957;50.824;4.360;2023-04-15T12:34:41;5.47;;;3.27;;
2390;SDS011;22957;50.824;4.360;2023-04-15T12:37:10;2.80;;;1.97;;
2390;SDS011;22957;50.824;4.360;2023-04-15T12:39:38;2.77;;;2.23;;
2390;SDS011;22957;50.824;4.360;2023-04-15T12:42:05;6.40;;;2.23;;
2390;SDS011;22957;50.824;4.360;2023-04-15T12:44:32;4.47;;;2.57;;
2390;SDS011;22957;50.824;4.360;2023-04-15T12:46:58;2.53;;;1.80;;
2390;SDS011;22957;50.824;4.360;2023-04-15T12:49:24;3.53;;;2.20;;
2390;SDS011;22957;50.824;4.360;2023-04-15T12:51:56;4.13;;;1.93;;
2390;SDS011;22957;50.824;4.360;2023-04-15T12:54:24;2.60;;;2.23;;
2390;SDS011;22957;50.824;4.360;2023-04-15T12:56:50;1.90;;;1.80;;
2390;SDS011;22957;50.824;4.360;2023-04-15T12:59:16;3.40;;;2.03;;
2390;SDS011;22957;50.824;4.360;2023-04-15T13:01:43;2.80;;;1.50;;
2390;SDS011;22957;50.824;4.360;2023-04-15T13:04:09;4.13;;;1.87;;
2390;SDS011;22957;50.824;4.360;2023-04-15T13:06:35;3.87;;;1.40;;
2390;SDS011;22957;50.824;4.360;2023-04-15T13:09:02;3.10;;;1.70;;
2390;SDS011;22957;50.824;4.360;2023-04-15T13:11:28;3.17;;;1.87;;
2390;SDS011;22957;50.824;4.360;2023-04-15T13:13:58;2.80;;;2.03;;
2390;SDS011;22957;50.824;4.360;2023-04-15T13:16:25;2.30;;;1.73;;
2390;SDS011;22957;50.824;4.360;2023-04-15T13:18:50;1.57;;;1.47;;
2390;SDS011;22957;50.824;4.360;2023-04-15T13:21:16;3.70;;;1.70;;
2390;SDS011;22957;50.824;4.360;2023-04-15T13:23:43;4.13;;;2.33;;
2390;SDS011;22957;50.824;4.360;2023-04-15T13:26:08;4.00;;;2.63;;
2390;SDS011;22957;50.824;4.360;2023-04-15T13:28:34;5.23;;;2.10;;
2390;SDS011;22957;50.824;4.360;2023-04-15T13:31:00;4.63;;;2.73;;
2390;SDS011;22957;50.824;4.360;2023-04-15T13:33:26;7.13;;;2.80;;
2390;SDS011;22957;50.824;4.360;2023-04-15T13:35:51;4.13;;;2.90;;
2390;SDS011;22957;50.824;4.360;2023-04-15T13:38:17;7.13;;;2.73;;
2390;SDS011;22957;50.824;4.360;2023-04-15T13:40:43;2.83;;;2.47;;
2390;SDS011;22957;50.824;4.360;2023-04-15T13:43:08;5.90;;;2.37;;
2390;SDS011;22957;50.824;4.360;2023-04-15T13:45:34;7.30;;;2.70;;
2390;SDS011;22957;50.824;4.360;2023-04-15T13:48:00;4.60;;;1.90;;
2390;SDS011;22957;50.824;4.360;2023-04-15T13:50:26;3.47;;;1.93;;
2390;SDS011;22957;50.824;4.360;2023-04-15T13:52:52;3.70;;;1.60;;
2390;SDS011;22957;50.824;4.360;2023-04-15T13:55:18;6.60;;;2.90;;
2390;SDS011;22957;50.824;4.360;2023-04-15T13:57:44;8.00;;;2.50;;
2390;SDS011;22957;50.824;4.360;2023-04-15T14:00:10;4.30;;;1.60;;
2390;SDS011;22957;50.824;4.360;2023-04-15T14:02:36;7.80;;;2.10;;
2390;SDS011;22957;50.824;4.360;2023-04-15T14:05:01;2.57;;;1.50;;
2390;SDS011;22957;50.824;4.360;2023-04-15T14:07:28;7.00;;;1.80;;
2390;SDS011;22957;50.824;4.360;2023-04-15T14:09:54;3.13;;;1.30;;
2390;SDS011;22957;50.824;4.360;2023-04-15T14:12:20;4.13;;;2.07;;
2390;SDS011;22957;50.824;4.360;2023-04-15T14:14:46;4.23;;;1.97;;
2390;SDS011;22957;50.824;4.360;2023-04-15T14:17:11;7.90;;;2.17;;
2390;SDS011;22957;50.824;4.360;2023-04-15T14:19:37;5.27;;;1.60;;
2390;SDS011;22957;50.824;4.360;2023-04-15T14:22:03;6.23;;;2.20;;
2390;SDS011;22957;50.824;4.360;2023-04-15T14:24:28;5.80;;;2.40;;
2390;SDS011;22957;50.824;4.360;2023-04-15T14:26:54;6.90;;;2.30;;
2390;SDS011;22957;50.824;4.360;2023-04-15T14:29:21;7.20;;;3.70;;
2390;SDS011;22957;50.824;4.360;2023-04-15T14:31:47;7.90;;;2.20;;
2390;SDS011;22957;50.824;4.360;2023-04-15T14:34:14;6.50;;;1.77;;
2390;SDS011;22957;50.824;4.360;2023-04-15T14:36:40;6.50;;;1.90;;
2390;SDS011;22957;50.824;4.360;2023-04-15T14:39:06;1.63;;;1.33;;
2390;SDS011;22957;50.824;4.360;2023-04-15T14:41:32;5.23;;;1.60;;
2390;SDS011;22957;50.824;4.360;2023-04-15T14:43:58;3.20;;;1.10;;
2390;SDS011;22957;50.824;4.360;2023-04-15T14:46:24;2.73;;;1.17;;
2390;SDS011;22957;50.824;4.360;2023-04-15T14:48:50;1.80;;;1.20;;
2390;SDS011;22957;50.824;4.360;2023-04-15T14:51:15;3.03;;;1.37;;
2390;SDS011;22957;50.824;4.360;2023-04-15T14:53:41;1.50;;;1.00;;
2390;SDS011;22957;50.824;4.360;2023-04-15T14:56:07;7.23;;;1.60;;
2390;SDS011;22957;50.824;4.360;2023-04-15T14:58:33;2.50;;;1.43;;
2390;SDS011;22957;50.824;4.360;2023-04-15T15:00:59;3.80;;;1.77;;
2390;SDS011;22957;50.824;4.360;2023-04-15T15:03:27;3.40;;;1.40;;
2390;SDS011;22957;50.824;4.360;2023-04-15T15:05:53;2.60;;;1.33;;
2390;SDS011;22957;50.824;4.360;2023-04-15T15:08:18;3.30;;;1.30;;
2390;SDS011;22957;50.824;4.360;2023-04-15T15:10:44;5.30;;;1.63;;